sensor_id;sensor_type;location;lat;lon;timestamp;P1;durP1;ratioP1;P2;durP2;ratioP2
21258;SDS011;10787;53.364;-1.480;2023-05-10T00:00:09;12.97;;;4.37;;
21258;SDS011;10787;53.364;-1.480;2023-05-10T00:02:54;11.57;;;3.83;;
21258;SDS011;10787;53.364;-1.480;2023-05-10T00:05:38;9.73;;;3.63;;
21258;SDS011;10787;53.364;-1.480;2023-05-10T00:08:22;9.70;;;3.30;;
21258;SDS011;10787;53.364;-1.480;2023-05-10T00:11:06;10.67;;;3.23;;
21258;SDS011;10787;53.364;-1.480;2023-05-10T00:13:50;10.83;;;3.47;;
21258;SDS011;10787;53.364;-1.480;2023-05-10T00:16:35;9.87;;;3.00;;
21258;SDS011;10787;53.364;-1.480;2023-05-10T00:19:19;10.50;;;3.17;;
21258;SDS011;10787;53.364;-1.480;2023-05-10T00:22:03;8.07;;;3.10;;
21258;SDS011;10787;53.364;-1.480;2023-05-10T00:24:47;8.27;;;2.80;;
21258;SDS011;10787;53.364;-1.480;2023-05-10T00:27:32;9.27;;;2.80;;
21258;SDS011;10787;53.364;-1.480;2023-05-10T00:30:16;7.53;;;2.80;;
21258;SDS011;10787;53.364;-1.480;2023-05-10T00:33:01;10.30;;;2.90;;
21258;SDS011;10787;53.364;-1.480;2023-05-10T00:35:46;10.47;;;2.80;;
21258;SDS011;10787;53.364;-1.480;2023-05-10T00:38:30;9.87;;;3.30;;
21258;SDS011;10787;53.364;-1.480;2023-05-10T00:41:14;11.17;;;3.20;;
21258;SDS011;10787;53.364;-1.480;2023-05-10T00:43:59;8.17;;;2.90;;
21258;SDS011;10787;53.364;-1.480;2023-05-10T00:46:45;10.97;;;3.40;;
21258;SDS011;10787;53.364;-1.480;2023-05-10T00:49:31;9.17;;;3.07;;
21258;SDS011;10787;53.364;-1.480;2023-05-10T00:52:16;12.27;;;3.37;;
21258;SDS011;10787;53.364;-1.480;2023-05-10T00:55:00;10.30;;;3.20;;
21258;SDS011;10787;53.364;-1.480;2023-05-10T00:57:46;13.27;;;3.57;;
21258;SDS011;10787;53.364;-1.480;2023-05-10T01:00:32;9.97;;;3.30;;
21258;SDS011;10787;53.364;-1.480;2023-05-10T01:03:17;10.73;;;3.20;;
21258;SDS011;10787;53.364;-1.480;2023-05-10T01:06:01;13.40;;;3.40;;
21258;SDS011;10787;53.364;-1.480;2023-05-10T01:08:46;10.70;;;3.40;;
21258;SDS011;10787;53.364;-1.480;2023-05-10T01:11:32;10.97;;;3.23;;
21258;SDS011;10787;53.364;-1.480;2023-05-10T01:14:18;10.07;;;3.40;;
21258;SDS011;10787;53.364;-1.480;2023-05-10T01:17:03;9.40;;;3.13;;
21258;SDS011;10787;53.364;-1.480;2023-05-10T01:19:49;10.53;;;3.33;;
21258;SDS011;10787;53.364;-1.480;2023-05-10T01:22:50;12.67;;;3.40;;
21258;SDS011;10787;53.364;-1.480;2023-05-10T01:35:00;12.10;;;3.00;;
21258;SDS011;10787;53.364;-1.480;2023-05-10T01:38:00;12.93;;;3.40;;
21258;SDS011;10787;53.364;-1.480;2023-05-10T01:49:54;12.60;;;3.17;;
21258;SDS011;10787;53.364;-1.480;2023-05-10T01:52:44;9.43;;;2.90;;
21258;SDS011;10787;53.364;-1.480;2023-05-10T01:55:43;9.70;;;2.87;;
21258;SDS011;10787;53.364;-1.480;2023-05-10T01:58:30;10.40;;;3.20;;
21258;SDS011;10787;53.364;-1.480;2023-05-10T02:01:16;9.87;;;3.00;;
21258;SDS011;10787;53.364;-1.480;2023-05-10T02:04:02;12.67;;;2.73;;
21258;SDS011;10787;53.364;-1.480;2023-05-10T02:06:48;13.97;;;3.00;;
21258;SDS011;10787;53.364;-1.480;2023-05-10T02:09:34;11.10;;;2.97;;
21258;SDS011;10787;53.364;-1.480;2023-05-10T02:12:20;11.03;;;3.43;;
21258;SDS011;10787;53.364;-1.480;2023-05-10T02:15:06;13.13;;;3.27;;
21258;SDS011;10787;53.364;-1.480;2023-05-10T02:17:52;12.47;;;3.77;;
21258;SDS011;10787;53.364;-1.480;2023-05-10T02:20:39;11.50;;;3.40;;
21258;SDS011;10787;53.364;-1.480;2023-05-10T02:23:24;10.07;;;3.30;;
21258;SDS011;10787;53.364;-1.480;2023-05-10T02:26:10;9.23;;;3.63;;
21258;SDS011;10787;53.364;-1.480;2023-05-10T02:28:57;10.33;;;3.80;;
21258;SDS011;10787;53.364;-1.480;2023-05-10T02:31:42;13.40;;;3.70;;
21258;SDS011;10787;53.364;-1.480;2023-05-10T02:34:27;13.40;;;3.93;;
21258;SDS011;10787;53.364;-1.480;2023-05-10T02:37:13;14.27;;;4.03;;
21258;SDS011;10787;53.364;-1.480;2023-05-10T02:39:59;10.97;;;3.80;;
21258;SDS011;10787;53.364;-1.480;2023-05-10T02:42:47;13.10;;;3.83;;
21258;SDS011;10787;53.364;-1.480;2023-05-10T02:45:34;11.80;;;3.83;;
21258;SDS011;10787;53.364;-1.480;2023-05-10T02:48:19;12.60;;;4.33;;
21258;SDS011;10787;53.364;-1.480;2023-05-10T02:51:04;14.23;;;4.00;;
21258;SDS011;10787;53.364;-1.480;2023-05-10T02:53:51;13.97;;;4.20;;
21258;SDS011;10787;53.364;-1.480;2023-05-10T02:56:40;13.07;;;3.90;;
21258;SDS011;10787;53.364;-1.480;2023-05-10T02:59:30;9.50;;;4.03;;
21258;SDS011;10787;53.364;-1.480;2023-05-10T03:02:16;16.53;;;4.50;;
21258;SDS011;10787;53.364;-1.480;2023-05-10T03:05:01;10.80;;;4.03;;
21258;SDS011;10787;53.364;-1.480;2023-05-10T03:07:46;15.90;;;4.47;;
21258;SDS011;10787;53.364;-1.480;2023-05-10T03:10:32;14.60;;;4.37;;
21258;SDS011;10787;53.364;-1.480;2023-05-10T03:16:36;11.53;;;4.23;;
21258;SDS011;10787;53.364;-1.480;2023-05-10T03:19:27;16.00;;;4.40;;
21258;SDS011;10787;53.364;-1.480;2023-05-10T03:22:21;13.87;;;4.57;;
21258;SDS011;10787;53.364;-1.480;2023-05-10T03:25:15;16.37;;;4.53;;
21258;SDS011;10787;53.364;-1.480;2023-05-10T03:28:02;11.77;;;4.40;;
21258;SDS011;10787;53.364;-1.480;2023-05-10T03:30:48;15.07;;;4.63;;
21258;SDS011;10787;53.364;-1.480;2023-05-10T03:33:35;14.03;;;4.70;;
21258;SDS011;10787;53.364;-1.480;2023-05-10T03:36:19;11.07;;;4.20;;
21258;SDS011;10787;53.364;-1.480;2023-05-10T03:39:03;11.80;;;4.20;;
21258;SDS011;10787;53.364;-1.480;2023-05-10T03:41:48;12.20;;;4.40;;
21258;SDS011;10787;53.364;-1.480;2023-05-10T03:44:32;13.73;;;4.73;;
21258;SDS011;10787;53.364;-1.480;2023-05-10T03:47:16;14.93;;;4.63;;
21258;SDS011;10787;53.364;-1.480;2023-05-10T03:50:01;16.03;;;4.87;;
21258;SDS011;10787;53.364;-1.480;2023-05-10T03:52:45;12.93;;;4.50;;
21258;SDS011;10787;53.364;-1.480;2023-05-10T03:55:30;11.33;;;4.57;;
21258;SDS011;10787;53.364;-1.480;2023-05-10T03:58:18;11.40;;;4.77;;
21258;SDS011;10787;53.364;-1.480;2023-05-10T04:01:02;16.40;;;5.07;;
21258;SDS011;10787;53.364;-1.480;2023-05-10T04:03:47;11.40;;;4.60;;
21258;SDS011;10787;53.364;-1.480;2023-05-10T04:06:31;11.37;;;4.87;;
21258;SDS011;10787;53.364;-1.480;2023-05-10T04:09:15;13.83;;;4.97;;
21258;SDS011;10787;53.364;-1.480;2023-05-10T04:12:00;13.77;;;5.10;;
21258;SDS011;10787;53.364;-1.480;2023-05-10T04:14:45;13.53;;;5.23;;
21258;SDS011;10787;53.364;-1.480;2023-05-10T04:17:30;15.80;;;5.47;;
21258;SDS011;10787;53.364;-1.480;2023-05-10T04:20:14;13.03;;;4.80;;
21258;SDS011;10787;53.364;-1.480;2023-05-10T04:22:59;15.50;;;5.23;;
21258;SDS011;10787;53.364;-1.480;2023-05-10T04:25:44;17.57;;;5.23;;
21258;SDS011;10787;53.364;-1.480;2023-05-10T04:28:28;13.27;;;5.17;;
21258;SDS011;10787;53.364;-1.480;2023-05-10T04:31:13;13.03;;;5.30;;
21258;SDS011;10787;53.364;-1.480;2023-05-10T04:33:57;15.13;;;5.17;;
21258;SDS011;10787;53.364;-1.480;2023-05-10T04:36:41;14.70;;;5.57;;
21258;SDS011;10787;53.364;-1.480;2023-05-10T04:39:25;15.47;;;6.23;;
21258;SDS011;10787;53.364;-1.480;2023-05-10T04:42:09;15.83;;;5.93;;
21258;SDS011;10787;53.364;-1.480;2023-05-10T04:44:54;14.57;;;5.60;;
21258;SDS011;10787;53.364;-1.480;2023-05-10T04:47:38;11.70;;;5.67;;
21258;SDS011;10787;53.364;-1.480;2023-05-10T04:50:22;16.03;;;6.30;;
21258;SDS011;10787;53.364;-1.480;2023-05-10T04:53:07;13.27;;;5.70;;
21258;SDS011;10787;53.364;-1.480;2023-05-10T04:55:51;16.70;;;6.27;;
21258;SDS011;10787;53.364;-1.480;2023-05-10T04:58:35;14.10;;;5.93;;
21258;SDS011;10787;53.364;-1.480;2023-05-10T05:01:22;13.93;;;6.13;;
21258;SDS011;10787;53.364;-1.480;2023-05-10T05:04:06;15.77;;;6.07;;
21258;SDS011;10787;53.364;-1.480;2023-05-10T05:06:51;15.00;;;5.87;;
21258;SDS011;10787;53.364;-1.480;2023-05-10T05:09:35;15.43;;;5.90;;
21258;SDS011;10787;53.364;-1.480;2023-05-10T05:12:20;14.93;;;6.13;;
21258;SDS011;10787;53.364;-1.480;2023-05-10T05:15:04;15.57;;;6.40;;
21258;SDS011;10787;53.364;-1.480;2023-05-10T05:17:48;14.97;;;6.03;;
21258;SDS011;10787;53.364;-1.480;2023-05-10T05:20:33;13.40;;;5.90;;
21258;SDS011;10787;53.364;-1.480;2023-05-10T05:23:20;13.67;;;6.23;;
21258;SDS011;10787;53.364;-1.480;2023-05-10T05:26:08;18.23;;;6.27;;
21258;SDS011;10787;53.364;-1.480;2023-05-10T05:28:53;13.93;;;6.10;;
21258;SDS011;10787;53.364;-1.480;2023-05-10T05:31:38;16.83;;;6.07;;
21258;SDS011;10787;53.364;-1.480;2023-05-10T05:34:22;12.07;;;5.80;;
21258;SDS011;10787;53.364;-1.480;2023-05-10T05:37:06;12.50;;;5.57;;
21258;SDS011;10787;53.364;-1.480;2023-05-10T05:39:50;14.03;;;5.87;;
21258;SDS011;10787;53.364;-1.480;2023-05-10T05:42:35;12.90;;;5.73;;
21258;SDS011;10787;53.364;-1.480;2023-05-10T05:45:20;12.67;;;5.50;;
21258;SDS011;10787;53.364;-1.480;2023-05-10T05:48:05;9.67;;;5.23;;
21258;SDS011;10787;53.364;-1.480;2023-05-10T05:50:49;11.13;;;5.20;;
21258;SDS011;10787;53.364;-1.480;2023-05-10T05:53:33;12.77;;;5.57;;
21258;SDS011;10787;53.364;-1.480;2023-05-10T05:56:18;10.45;;;5.60;;
21258;SDS011;10787;53.364;-1.480;2023-05-10T05:59:08;11.93;;;5.60;;
21258;SDS011;10787;53.364;-1.480;2023-05-10T06:01:52;12.07;;;5.73;;
21258;SDS011;10787;53.364;-1.480;2023-05-10T06:04:36;10.88;;;5.43;;
21258;SDS011;10787;53.364;-1.480;2023-05-10T06:07:21;14.13;;;5.88;;
21258;SDS011;10787;53.364;-1.480;2023-05-10T06:10:05;11.57;;;5.80;;
21258;SDS011;10787;53.364;-1.480;2023-05-10T06:12:50;11.33;;;5.80;;
21258;SDS011;10787;53.364;-1.480;2023-05-10T06:15:34;14.90;;;6.00;;
21258;SDS011;10787;53.364;-1.480;2023-05-10T06:18:18;10.83;;;5.60;;
21258;SDS011;10787;53.364;-1.480;2023-05-10T06:21:02;12.60;;;5.90;;
21258;SDS011;10787;53.364;-1.480;2023-05-10T06:23:47;12.00;;;5.83;;
21258;SDS011;10787;53.364;-1.480;2023-05-10T06:26:31;13.20;;;6.30;;
21258;SDS011;10787;53.364;-1.480;2023-05-10T06:29:16;13.93;;;6.27;;
21258;SDS011;10787;53.364;-1.480;2023-05-10T06:32:01;11.80;;;6.13;;
21258;SDS011;10787;53.364;-1.480;2023-05-10T06:34:46;10.27;;;5.53;;
21258;SDS011;10787;53.364;-1.480;2023-05-10T06:37:29;12.87;;;5.70;;
21258;SDS011;10787;53.364;-1.480;2023-05-10T06:40:14;10.40;;;4.83;;
21258;SDS011;10787;53.364;-1.480;2023-05-10T06:42:58;9.18;;;4.78;;
21258;SDS011;10787;53.364;-1.480;2023-05-10T06:45:43;9.87;;;4.70;;
21258;SDS011;10787;53.364;-1.480;2023-05-10T06:48:27;12.73;;;5.20;;
21258;SDS011;10787;53.364;-1.480;2023-05-10T06:51:12;9.80;;;5.30;;
21258;SDS011;10787;53.364;-1.480;2023-05-10T06:53:56;11.75;;;4.72;;
21258;SDS011;10787;53.364;-1.480;2023-05-10T06:56:40;8.88;;;4.80;;
21258;SDS011;10787;53.364;-1.480;2023-05-10T06:59:24;7.78;;;4.53;;
21258;SDS011;10787;53.364;-1.480;2023-05-10T07:02:09;10.20;;;4.00;;
21258;SDS011;10787;53.364;-1.480;2023-05-10T07:04:53;7.65;;;4.13;;
21258;SDS011;10787;53.364;-1.480;2023-05-10T07:07:37;8.98;;;4.40;;
21258;SDS011;10787;53.364;-1.480;2023-05-10T07:10:21;7.72;;;3.95;;
21258;SDS011;10787;53.364;-1.480;2023-05-10T07:13:05;8.52;;;3.95;;
21258;SDS011;10787;53.364;-1.480;2023-05-10T07:15:50;10.02;;;3.95;;
21258;SDS011;10787;53.364;-1.480;2023-05-10T07:18:34;9.80;;;4.22;;
21258;SDS011;10787;53.364;-1.480;2023-05-10T07:21:18;8.90;;;3.90;;
21258;SDS011;10787;53.364;-1.480;2023-05-10T07:24:03;8.20;;;4.22;;
21258;SDS011;10787;53.364;-1.480;2023-05-10T07:26:47;9.38;;;4.05;;
21258;SDS011;10787;53.364;-1.480;2023-05-10T07:29:32;10.50;;;4.43;;
21258;SDS011;10787;53.364;-1.480;2023-05-10T07:32:16;9.10;;;4.22;;
21258;SDS011;10787;53.364;-1.480;2023-05-10T07:35:00;7.80;;;3.47;;
21258;SDS011;10787;53.364;-1.480;2023-05-10T07:37:45;9.80;;;3.90;;
21258;SDS011;10787;53.364;-1.480;2023-05-10T07:40:29;9.73;;;3.78;;
21258;SDS011;10787;53.364;-1.480;2023-05-10T07:43:14;9.07;;;3.47;;
21258;SDS011;10787;53.364;-1.480;2023-05-10T07:45:58;8.02;;;3.53;;
21258;SDS011;10787;53.364;-1.480;2023-05-10T07:48:43;7.07;;;3.50;;
21258;SDS011;10787;53.364;-1.480;2023-05-10T07:51:28;5.63;;;3.00;;
21258;SDS011;10787;53.364;-1.480;2023-05-10T07:54:12;7.55;;;3.17;;
21258;SDS011;10787;53.364;-1.480;2023-05-10T07:56:57;6.28;;;2.65;;
21258;SDS011;10787;53.364;-1.480;2023-05-10T07:59:41;7.43;;;3.33;;
21258;SDS011;10787;53.364;-1.480;2023-05-10T08:02:25;5.07;;;2.53;;
21258;SDS011;10787;53.364;-1.480;2023-05-10T08:05:10;5.70;;;3.17;;
21258;SDS011;10787;53.364;-1.480;2023-05-10T08:07:54;7.13;;;3.42;;
21258;SDS011;10787;53.364;-1.480;2023-05-10T08:10:38;7.25;;;3.53;;
21258;SDS011;10787;53.364;-1.480;2023-05-10T08:13:23;7.78;;;3.42;;
21258;SDS011;10787;53.364;-1.480;2023-05-10T08:16:08;7.50;;;3.63;;
21258;SDS011;10787;53.364;-1.480;2023-05-10T08:18:52;7.35;;;3.90;;
21258;SDS011;10787;53.364;-1.480;2023-05-10T08:21:38;7.40;;;4.88;;
21258;SDS011;10787;53.364;-1.480;2023-05-10T08:24:24;11.18;;;5.22;;
21258;SDS011;10787;53.364;-1.480;2023-05-10T08:27:09;9.55;;;5.32;;
21258;SDS011;10787;53.364;-1.480;2023-05-10T08:29:53;7.57;;;4.68;;
21258;SDS011;10787;53.364;-1.480;2023-05-10T08:32:38;5.65;;;3.17;;
21258;SDS011;10787;53.364;-1.480;2023-05-10T08:35:22;9.55;;;4.22;;
21258;SDS011;10787;53.364;-1.480;2023-05-10T08:38:07;7.88;;;4.63;;
21258;SDS011;10787;53.364;-1.480;2023-05-10T08:40:51;9.13;;;5.88;;
21258;SDS011;10787;53.364;-1.480;2023-05-10T08:43:40;12.30;;;5.13;;
21258;SDS011;10787;53.364;-1.480;2023-05-10T08:46:29;8.13;;;4.20;;
21258;SDS011;10787;53.364;-1.480;2023-05-10T08:49:17;7.78;;;3.75;;
21258;SDS011;10787;53.364;-1.480;2023-05-10T08:52:03;8.13;;;3.40;;
21258;SDS011;10787;53.364;-1.480;2023-05-10T08:54:49;8.65;;;3.08;;
21258;SDS011;10787;53.364;-1.480;2023-05-10T08:57:34;8.35;;;2.80;;
21258;SDS011;10787;53.364;-1.480;2023-05-10T09:00:20;5.72;;;2.40;;
21258;SDS011;10787;53.364;-1.480;2023-05-10T09:03:06;4.32;;;1.67;;
21258;SDS011;10787;53.364;-1.480;2023-05-10T09:05:51;3.95;;;1.70;;
21258;SDS011;10787;53.364;-1.480;2023-05-10T09:08:35;5.38;;;1.60;;
21258;SDS011;10787;53.364;-1.480;2023-05-10T09:11:21;4.55;;;1.80;;
21258;SDS011;10787;53.364;-1.480;2023-05-10T09:14:06;3.10;;;1.20;;
21258;SDS011;10787;53.364;-1.480;2023-05-10T09:16:52;2.83;;;1.23;;
21258;SDS011;10787;53.364;-1.480;2023-05-10T09:19:39;3.45;;;1.65;;
21258;SDS011;10787;53.364;-1.480;2023-05-10T09:22:23;3.25;;;1.40;;
21258;SDS011;10787;53.364;-1.480;2023-05-10T09:25:08;2.97;;;1.63;;
21258;SDS011;10787;53.364;-1.480;2023-05-10T09:27:57;5.20;;;1.50;;
21258;SDS011;10787;53.364;-1.480;2023-05-10T09:30:41;5.90;;;2.28;;
21258;SDS011;10787;53.364;-1.480;2023-05-10T09:33:26;4.25;;;1.73;;
21258;SDS011;10787;53.364;-1.480;2023-05-10T09:36:11;4.22;;;1.88;;
21258;SDS011;10787;53.364;-1.480;2023-05-10T09:38:57;7.32;;;2.67;;
21258;SDS011;10787;53.364;-1.480;2023-05-10T09:41:41;5.82;;;3.20;;
21258;SDS011;10787;53.364;-1.480;2023-05-10T09:44:26;5.75;;;3.63;;
21258;SDS011;10787;53.364;-1.480;2023-05-10T09:47:10;8.32;;;3.58;;
21258;SDS011;10787;53.364;-1.480;2023-05-10T09:50:02;6.22;;;2.85;;
21258;SDS011;10787;53.364;-1.480;2023-05-10T09:52:52;3.67;;;2.60;;
21258;SDS011;10787;53.364;-1.480;2023-05-10T09:55:39;6.13;;;2.80;;
21258;SDS011;10787;53.364;-1.480;2023-05-10T09:58:28;8.05;;;2.95;;
21258;SDS011;10787;53.364;-1.480;2023-05-10T10:01:12;9.00;;;2.80;;
21258;SDS011;10787;53.364;-1.480;2023-05-10T10:03:58;4.90;;;2.72;;
21258;SDS011;10787;53.364;-1.480;2023-05-10T10:06:42;5.15;;;2.80;;
21258;SDS011;10787;53.364;-1.480;2023-05-10T10:09:26;5.00;;;2.53;;
21258;SDS011;10787;53.364;-1.480;2023-05-10T10:12:12;6.80;;;2.67;;
21258;SDS011;10787;53.364;-1.480;2023-05-10T10:14:56;5.45;;;2.53;;
21258;SDS011;10787;53.364;-1.480;2023-05-10T10:17:40;3.67;;;2.22;;
21258;SDS011;10787;53.364;-1.480;2023-05-10T10:20:28;3.33;;;1.92;;
21258;SDS011;10787;53.364;-1.480;2023-05-10T10:23:13;5.45;;;2.05;;
21258;SDS011;10787;53.364;-1.480;2023-05-10T10:25:57;4.70;;;1.70;;
21258;SDS011;10787;53.364;-1.480;2023-05-10T10:32:22;3.85;;;2.17;;
21258;SDS011;10787;53.364;-1.480;2023-05-10T10:35:31;6.93;;;4.30;;
21258;SDS011;10787;53.364;-1.480;2023-05-10T10:38:16;2.53;;;1.60;;
21258;SDS011;10787;53.364;-1.480;2023-05-10T10:41:10;3.55;;;1.70;;
21258;SDS011;10787;53.364;-1.480;2023-05-10T10:44:56;10.93;;;5.38;;
21258;SDS011;10787;53.364;-1.480;2023-05-10T10:47:21;3.22;;;1.90;;
21258;SDS011;10787;53.364;-1.480;2023-05-10T10:50:07;2.83;;;2.00;;
21258;SDS011;10787;53.364;-1.480;2023-05-10T10:52:52;3.10;;;1.75;;
21258;SDS011;10787;53.364;-1.480;2023-05-10T10:55:44;3.72;;;1.98;;
21258;SDS011;10787;53.364;-1.480;2023-05-10T10:58:30;3.45;;;2.10;;
21258;SDS011;10787;53.364;-1.480;2023-05-10T11:01:16;4.25;;;2.10;;
21258;SDS011;10787;53.364;-1.480;2023-05-10T11:06:48;4.05;;;2.30;;
21258;SDS011;10787;53.364;-1.480;2023-05-10T11:09:38;6.00;;;2.63;;
21258;SDS011;10787;53.364;-1.480;2023-05-10T11:12:23;4.38;;;2.50;;
21258;SDS011;10787;53.364;-1.480;2023-05-10T11:15:09;3.70;;;2.30;;
21258;SDS011;10787;53.364;-1.480;2023-05-10T11:17:53;5.28;;;2.30;;
21258;SDS011;10787;53.364;-1.480;2023-05-10T11:20:39;4.57;;;2.58;;
21258;SDS011;10787;53.364;-1.480;2023-05-10T11:23:24;5.43;;;2.60;;
21258;SDS011;10787;53.364;-1.480;2023-05-10T11:26:14;4.80;;;2.67;;
21258;SDS011;10787;53.364;-1.480;2023-05-10T11:28:58;3.65;;;2.50;;
21258;SDS011;10787;53.364;-1.480;2023-05-10T11:31:45;3.13;;;2.40;;
21258;SDS011;10787;53.364;-1.480;2023-05-10T11:34:31;3.80;;;2.42;;
21258;SDS011;10787;53.364;-1.480;2023-05-10T11:37:18;2.70;;;1.75;;
21258;SDS011;10787;53.364;-1.480;2023-05-10T11:40:03;2.42;;;1.60;;
21258;SDS011;10787;53.364;-1.480;2023-05-10T11:42:47;1.60;;;1.25;;
21258;SDS011;10787;53.364;-1.480;2023-05-10T11:45:32;2.30;;;1.27;;
21258;SDS011;10787;53.364;-1.480;2023-05-10T11:48:17;2.75;;;1.45;;
21258;SDS011;10787;53.364;-1.480;2023-05-10T11:51:09;2.10;;;1.25;;
21258;SDS011;10787;53.364;-1.480;2023-05-10T11:53:54;1.90;;;1.00;;
21258;SDS011;10787;53.364;-1.480;2023-05-10T11:56:40;2.20;;;1.10;;
21258;SDS011;10787;53.364;-1.480;2023-05-10T11:59:24;2.13;;;1.10;;
21258;SDS011;10787;53.364;-1.480;2023-05-10T12:02:09;2.45;;;1.40;;
21258;SDS011;10787;53.364;-1.480;2023-05-10T12:04:54;2.22;;;1.50;;
21258;SDS011;10787;53.364;-1.480;2023-05-10T12:07:39;2.67;;;1.33;;
21258;SDS011;10787;53.364;-1.480;2023-05-10T12:10:26;2.28;;;1.40;;
21258;SDS011;10787;53.364;-1.480;2023-05-10T12:13:11;2.67;;;1.30;;
21258;SDS011;10787;53.364;-1.480;2023-05-10T12:15:59;2.92;;;1.50;;
21258;SDS011;10787;53.364;-1.480;2023-05-10T12:18:56;2.63;;;1.60;;
21258;SDS011;10787;53.364;-1.480;2023-05-10T12:21:41;5.03;;;2.03;;
21258;SDS011;10787;53.364;-1.480;2023-05-10T12:24:27;1.55;;;1.30;;
21258;SDS011;10787;53.364;-1.480;2023-05-10T12:27:11;2.05;;;1.25;;
21258;SDS011;10787;53.364;-1.480;2023-05-10T12:29:58;1.50;;;1.10;;
21258;SDS011;10787;53.364;-1.480;2023-05-10T12:32:43;0.70;;;0.70;;
21258;SDS011;10787;53.364;-1.480;2023-05-10T12:35:31;1.25;;;0.70;;
21258;SDS011;10787;53.364;-1.480;2023-05-10T12:38:35;0.77;;;0.70;;
21258;SDS011;10787;53.364;-1.480;2023-05-10T12:41:21;0.82;;;0.70;;
21258;SDS011;10787;53.364;-1.480;2023-05-10T12:44:06;1.48;;;1.00;;
21258;SDS011;10787;53.364;-1.480;2023-05-10T12:46:50;2.15;;;0.82;;
21258;SDS011;10787;53.364;-1.480;2023-05-10T12:49:34;2.05;;;0.80;;
21258;SDS011;10787;53.364;-1.480;2023-05-10T12:52:18;0.80;;;0.80;;
21258;SDS011;10787;53.364;-1.480;2023-05-10T12:55:03;0.70;;;0.70;;
21258;SDS011;10787;53.364;-1.480;2023-05-10T12:57:48;0.80;;;0.70;;
21258;SDS011;10787;53.364;-1.480;2023-05-10T13:00:32;2.63;;;0.90;;
21258;SDS011;10787;53.364;-1.480;2023-05-10T13:03:17;1.23;;;0.80;;
21258;SDS011;10787;53.364;-1.480;2023-05-10T13:06:01;1.02;;;0.80;;
21258;SDS011;10787;53.364;-1.480;2023-05-10T13:08:46;1.23;;;1.00;;
21258;SDS011;10787;53.364;-1.480;2023-05-10T13:11:30;1.67;;;1.17;;
21258;SDS011;10787;53.364;-1.480;2023-05-10T13:14:14;1.65;;;0.90;;
21258;SDS011;10787;53.364;-1.480;2023-05-10T13:16:59;1.40;;;1.00;;
21258;SDS011;10787;53.364;-1.480;2023-05-10T13:19:43;1.45;;;1.10;;
21258;SDS011;10787;53.364;-1.480;2023-05-10T13:22:27;1.33;;;1.00;;
21258;SDS011;10787;53.364;-1.480;2023-05-10T13:25:11;1.65;;;1.10;;
21258;SDS011;10787;53.364;-1.480;2023-05-10T13:27:56;1.38;;;1.10;;
21258;SDS011;10787;53.364;-1.480;2023-05-10T13:30:40;1.80;;;0.90;;
21258;SDS011;10787;53.364;-1.480;2023-05-10T13:33:25;3.10;;;1.20;;
21258;SDS011;10787;53.364;-1.480;2023-05-10T13:36:09;3.88;;;1.15;;
21258;SDS011;10787;53.364;-1.480;2023-05-10T13:38:53;2.45;;;1.30;;
21258;SDS011;10787;53.364;-1.480;2023-05-10T13:41:37;2.88;;;1.10;;
21258;SDS011;10787;53.364;-1.480;2023-05-10T13:44:22;1.65;;;1.00;;
21258;SDS011;10787;53.364;-1.480;2023-05-10T13:47:06;2.67;;;1.30;;
21258;SDS011;10787;53.364;-1.480;2023-05-10T13:49:51;3.60;;;2.08;;
21258;SDS011;10787;53.364;-1.480;2023-05-10T13:52:35;3.08;;;2.00;;
21258;SDS011;10787;53.364;-1.480;2023-05-10T13:55:20;3.00;;;2.10;;
21258;SDS011;10787;53.364;-1.480;2023-05-10T13:58:04;1.67;;;1.50;;
21258;SDS011;10787;53.364;-1.480;2023-05-10T14:00:49;2.15;;;1.50;;
21258;SDS011;10787;53.364;-1.480;2023-05-10T14:03:33;2.78;;;1.50;;
21258;SDS011;10787;53.364;-1.480;2023-05-10T14:06:17;4.20;;;2.00;;
21258;SDS011;10787;53.364;-1.480;2023-05-10T14:09:01;3.28;;;1.50;;
21258;SDS011;10787;53.364;-1.480;2023-05-10T14:11:49;1.20;;;1.10;;
21258;SDS011;10787;53.364;-1.480;2023-05-10T14:14:33;2.10;;;1.20;;
21258;SDS011;10787;53.364;-1.480;2023-05-10T14:17:18;2.05;;;1.30;;
21258;SDS011;10787;53.364;-1.480;2023-05-10T14:20:02;2.25;;;1.17;;
21258;SDS011;10787;53.364;-1.480;2023-05-10T14:22:47;1.83;;;1.20;;
21258;SDS011;10787;53.364;-1.480;2023-05-10T14:25:31;2.67;;;1.40;;
21258;SDS011;10787;53.364;-1.480;2023-05-10T14:28:17;1.10;;;0.90;;
21258;SDS011;10787;53.364;-1.480;2023-05-10T14:31:02;1.42;;;0.90;;
21258;SDS011;10787;53.364;-1.480;2023-05-10T14:33:46;1.58;;;0.90;;
21258;SDS011;10787;53.364;-1.480;2023-05-10T14:36:31;2.85;;;1.17;;
21258;SDS011;10787;53.364;-1.480;2023-05-10T14:39:15;1.95;;;0.90;;
21258;SDS011;10787;53.364;-1.480;2023-05-10T14:42:00;1.13;;;0.90;;
21258;SDS011;10787;53.364;-1.480;2023-05-10T14:44:44;1.70;;;1.10;;
21258;SDS011;10787;53.364;-1.480;2023-05-10T14:47:28;2.00;;;1.00;;
21258;SDS011;10787;53.364;-1.480;2023-05-10T14:50:12;1.42;;;1.00;;
21258;SDS011;10787;53.364;-1.480;2023-05-10T14:52:57;1.90;;;1.33;;
21258;SDS011;10787;53.364;-1.480;2023-05-10T14:55:42;1.88;;;1.10;;
21258;SDS011;10787;53.364;-1.480;2023-05-10T14:58:26;1.13;;;1.02;;
21258;SDS011;10787;53.364;-1.480;2023-05-10T15:01:11;1.60;;;1.23;;
21258;SDS011;10787;53.364;-1.480;2023-05-10T15:03:55;1.70;;;1.10;;
21258;SDS011;10787;53.364;-1.480;2023-05-10T15:06:39;1.85;;;1.10;;
21258;SDS011;10787;53.364;-1.480;2023-05-10T15:09:24;1.92;;;1.00;;
21258;SDS011;10787;53.364;-1.480;2023-05-10T15:12:11;1.73;;;1.10;;
21258;SDS011;10787;53.364;-1.480;2023-05-10T15:14:55;2.25;;;1.17;;
21258;SDS011;10787;53.364;-1.480;2023-05-10T15:17:39;1.73;;;0.90;;
21258;SDS011;10787;53.364;-1.480;2023-05-10T15:20:23;2.70;;;0.80;;
21258;SDS011;10787;53.364;-1.480;2023-05-10T15:23:08;1.80;;;0.90;;
21258;SDS011;10787;53.364;-1.480;2023-05-10T15:25:52;0.93;;;0.73;;
21258;SDS011;10787;53.364;-1.480;2023-05-10T15:28:39;1.27;;;0.90;;
21258;SDS011;10787;53.364;-1.480;2023-05-10T15:31:23;1.33;;;0.90;;
21258;SDS011;10787;53.364;-1.480;2023-05-10T15:34:08;2.00;;;0.88;;
21258;SDS011;10787;53.364;-1.480;2023-05-10T15:36:52;2.75;;;0.80;;
21258;SDS011;10787;53.364;-1.480;2023-05-10T15:39:36;1.80;;;0.98;;
21258;SDS011;10787;53.364;-1.480;2023-05-10T15:42:21;2.97;;;1.40;;
21258;SDS011;10787;53.364;-1.480;2023-05-10T15:45:05;2.42;;;1.50;;
21258;SDS011;10787;53.364;-1.480;2023-05-10T15:47:50;2.10;;;1.67;;
21258;SDS011;10787;53.364;-1.480;2023-05-10T15:50:35;2.58;;;1.63;;
21258;SDS011;10787;53.364;-1.480;2023-05-10T15:53:20;1.60;;;1.30;;
21258;SDS011;10787;53.364;-1.480;2023-05-10T15:56:04;1.67;;;1.20;;
21258;SDS011;10787;53.364;-1.480;2023-05-10T15:58:49;3.03;;;1.40;;
21258;SDS011;10787;53.364;-1.480;2023-05-10T16:01:33;3.38;;;1.40;;
21258;SDS011;10787;53.364;-1.480;2023-05-10T16:04:18;2.22;;;1.40;;
21258;SDS011;10787;53.364;-1.480;2023-05-10T16:07:03;4.93;;;1.92;;
21258;SDS011;10787;53.364;-1.480;2023-05-10T16:09:47;3.10;;;1.42;;
21258;SDS011;10787;53.364;-1.480;2023-05-10T16:12:32;1.42;;;1.27;;
21258;SDS011;10787;53.364;-1.480;2023-05-10T16:15:17;1.85;;;1.50;;
21258;SDS011;10787;53.364;-1.480;2023-05-10T16:18:01;1.85;;;1.20;;
21258;SDS011;10787;53.364;-1.480;2023-05-10T16:20:45;2.78;;;1.10;;
21258;SDS011;10787;53.364;-1.480;2023-05-10T16:23:29;1.55;;;1.10;;
21258;SDS011;10787;53.364;-1.480;2023-05-10T16:26:14;2.83;;;2.00;;
21258;SDS011;10787;53.364;-1.480;2023-05-10T16:28:58;2.15;;;1.63;;
21258;SDS011;10787;53.364;-1.480;2023-05-10T16:31:43;2.35;;;1.02;;
21258;SDS011;10787;53.364;-1.480;2023-05-10T16:34:27;1.50;;;1.08;;
21258;SDS011;10787;53.364;-1.480;2023-05-10T16:37:11;1.77;;;0.88;;
21258;SDS011;10787;53.364;-1.480;2023-05-10T16:39:56;2.10;;;1.00;;
21258;SDS011;10787;53.364;-1.480;2023-05-10T16:42:40;2.25;;;1.15;;
21258;SDS011;10787;53.364;-1.480;2023-05-10T16:45:24;1.70;;;1.10;;